バンクーバー の空港の天気 - METARとTAF

バンクーバー国際空港 ( CYVR / YVR ) - カナダ ブリティッシュコロンビア州バンクーバー
飛行場実況気象(Metar)
観測時間03/22 14:00 PDT (03/22 21:00 UTC)
風向・風速東南東 6m/s
視程10km以上
天気現象
少しの雲 雲底高度 1520m
全天の8割程度の雲 雲底高度 3960m
全天を覆う雲 雲底高度 7620m
気温15℃
湿度55%
気圧1011.7hPa
METARCYVR 222100Z 11011KT 30SM FEW050 BKN130 OVC250 15/06 A2987 RMK CU1AC6CS1 SLP117 DENSITY ALT 200FT
過去の天気等 Google飛行場航空写真 Wunderground天気予報

過去48時間のMETAR

飛行場予報(TAF)
発表時間: 3/22 13:43 PDT (3/22 20:43 UTC)
予報対象時間: 22日14時 PDT ~ 23日17時 PDT
風向・風速東南東 6m/s
視程10km以上
少しの雲 雲底高度 910m
全天の8割程度の雲 雲底高度 3660m
22日17時 PDT から
風向・風速東南東 4m/s
視程10km以上
全天の4割程度の雲 雲底高度 910m
全天の8割程度の雲 雲底高度 1830m
22日17時 PDT ~ 22日20時 PDT に一時的に
視程10km以上
天気現象弱い雨
22日20時 PDT から
風向・風速東南東 5m/s
視程10km以上
天気現象弱い雨
全天の4割程度の雲 雲底高度 460m
全天を覆う雲 雲底高度 910m
22日20時 PDT ~ 23日1時 PDT に一時的に
視程8050m
天気現象弱いしゅう雨 もや
少しの雲 雲底高度 210m
全天の8割程度の雲 雲底高度 460m
全天を覆う雲 雲底高度 910m
23日1時 PDT から
風向・風速東南東 4m/s
視程10km以上
全天の4割程度の雲 雲底高度 610m
全天の8割程度の雲 雲底高度 1220m
23日1時 PDT ~ 23日13時 PDT に一時的に
視程10km以上
天気現象弱いしゅう雨
全天の8割程度の雲 雲底高度 610m
全天の8割程度の雲 雲底高度 1220m
TAF CYVR 222043Z 2221/2324 12012KT P6SM FEW030 BKN120
FM230000 11008KT P6SM SCT030 BKN060
TEMPO 2300/2303 P6SM -RA
FM230300 12010KT P6SM -RA SCT015 OVC030
TEMPO 2303/2308 5SM -SHRA BR FEW007 BKN015 OVC030
FM230800 12008KT P6SM SCT020 BKN040
TEMPO 2308/2320 P6SM -SHRA BKN020 BKN040 RMK NXT FCST BY 230000Z